Time;durP1;ratioP1;P1;durP2;ratioP2;P2;SDS_P1;SDS_P2;PMS_P1;PMS_P2;Temp;Humidity;BMP_temperature;BMP_pressure;BME280_temperature;BME280_humidity;BME280_pressure;Samples;Min_cycle;Max_cycle;Signal;HPM_P1;HPM_P2
2022/03/11 00:01:01;;;;;;;18.52;13.50;;;19.80;36.10;;;;;;5071512;28;20474;-78
2022/03/11 00:03:27;;;;;;;17.15;12.75;;;19.80;36.20;;;;;;5071481;28;20024;-80
2022/03/11 00:05:54;;;;;;;19.77;12.43;;;19.80;36.70;;;;;;5072836;28;20051;-76
2022/03/11 00:08:20;;;;;;;19.30;12.70;;;19.80;36.10;;;;;;5072570;28;20368;-77
2022/03/11 00:10:45;;;;;;;21.00;13.13;;;19.80;36.10;;;;;;5072699;28;20095;-79
2022/03/11 00:13:11;;;;;;;17.65;12.75;;;19.80;36.10;;;;;;5071349;28;20021;-78
2022/03/11 00:15:37;;;;;;;18.63;12.55;;;19.80;36.10;;;;;;5054569;28;20017;-78
2022/03/11 00:18:04;;;;;;;16.90;11.85;;;19.80;36.10;;;;;;5071779;28;20071;-79
2022/03/11 00:20:31;;;;;;;17.65;11.85;;;19.80;36.10;;;;;;5054349;28;20044;-78
2022/03/11 00:22:57;;;;;;;15.50;11.70;;;19.80;36.10;;;;;;5071389;28;20739;-79
2022/03/11 00:25:23;;;;;;;17.88;11.68;;;19.70;36.00;;;;;;5054855;28;20013;-80
2022/03/11 00:27:49;;;;;;;19.40;12.10;;;19.70;36.10;;;;;;5071176;28;20056;-79
2022/03/11 00:30:15;;;;;;;16.95;11.73;;;19.70;36.00;;;;;;5037745;28;20524;-79
2022/03/11 00:32:41;;;;;;;16.92;11.52;;;19.70;36.00;;;;;;5072648;28;20044;-78
2022/03/11 00:35:09;;;;;;;16.90;12.23;;;19.70;36.00;;;;;;5055943;28;20407;-77
2022/03/11 00:37:35;;;;;;;21.15;12.25;;;19.70;36.00;;;;;;5058339;28;20029;-79
2022/03/11 00:40:01;;;;;;;16.17;10.60;;;19.70;36.00;;;;;;5075123;28;20146;-79
2022/03/11 00:42:27;;;;;;;19.55;11.15;;;19.70;36.00;;;;;;5074917;28;20031;-78
2022/03/11 00:44:53;;;;;;;18.60;10.93;;;19.70;36.00;;;;;;5058517;28;20020;-80
2022/03/11 00:47:19;;;;;;;15.68;11.13;;;19.70;36.00;;;;;;5058240;28;20028;-79
2022/03/11 00:49:45;;;;;;;15.55;10.77;;;19.70;36.00;;;;;;5058471;28;20043;-78
2022/03/11 00:52:11;;;;;;;16.17;10.85;;;19.60;35.90;;;;;;5058157;28;20471;-79
2022/03/11 00:54:37;;;;;;;14.43;11.25;;;19.60;35.90;;;;;;5075848;28;20013;-77
2022/03/11 00:57:03;;;;;;;16.85;10.40;;;19.60;35.90;;;;;;5041239;28;20009;-85
2022/03/11 00:59:29;;;;;;;19.88;10.80;;;19.60;35.90;;;;;;5058161;28;20751;-83
2022/03/11 01:01:55;;;;;;;14.00;10.48;;;19.60;35.90;;;;;;5074670;28;20019;-85
2022/03/11 01:04:21;;;;;;;16.00;10.77;;;19.60;35.90;;;;;;5041272;28;20025;-87
2022/03/11 01:06:46;;;;;;;15.40;10.48;;;19.60;35.90;;;;;;5074475;28;20087;-85
2022/03/11 01:09:12;;;;;;;14.70;9.93;;;19.60;35.90;;;;;;5074443;28;20024;-87
2022/03/11 01:11:38;;;;;;;16.23;10.20;;;19.60;35.90;;;;;;5074693;28;20019;-83
2022/03/11 01:14:04;;;;;;;15.45;10.25;;;19.60;35.80;;;;;;5057613;28;20012;-83
2022/03/11 01:16:31;;;;;;;14.23;10.07;;;19.60;35.80;;;;;;5074468;28;20042;-85
2022/03/11 01:18:57;;;;;;;14.70;9.93;;;19.60;35.80;;;;;;5040790;28;20589;-80
2022/03/11 01:21:23;;;;;;;15.43;10.60;;;19.50;35.80;;;;;;5074298;28;20025;-80
2022/03/11 01:23:49;;;;;;;16.27;10.18;;;19.60;35.90;;;;;;5057798;28;20134;-78
2022/03/11 01:26:16;;;;;;;14.88;9.88;;;19.50;35.80;;;;;;5074212;28;20107;-78
2022/03/11 01:28:42;;;;;;;14.88;8.63;;;19.50;35.80;;;;;;5057714;28;20029;-78
2022/03/11 01:31:11;;;;;;;15.80;9.65;;;19.50;35.80;;;;;;5074014;28;20023;-80
2022/03/11 01:33:42;;;;;;;15.95;9.98;;;19.50;35.70;;;;;;5057671;28;20017;-79
2022/03/11 01:36:08;;;;;;;13.25;9.38;;;19.50;35.70;;;;;;5057083;28;20016;-80
2022/03/11 01:38:35;;;;;;;13.55;9.68;;;19.50;35.70;;;;;;5073829;28;20462;-77
2022/03/11 01:41:01;;;;;;;14.70;9.18;;;19.50;35.70;;;;;;5074201;28;20098;-79
2022/03/11 01:43:29;;;;;;;12.85;9.13;;;19.50;35.70;;;;;;5075012;28;20068;-77
2022/03/11 01:46:13;;;;;;;12.48;8.82;;;19.50;35.70;;;;;;5057430;28;20031;-77
2022/03/11 01:48:38;;;;;;;12.30;8.55;;;19.50;35.70;;;;;;5073726;28;20025;-79
2022/03/11 01:51:04;;;;;;;11.10;9.02;;;19.50;35.70;;;;;;5056967;28;20024;-79
2022/03/11 01:53:29;;;;;;;11.15;8.85;;;19.50;35.60;;;;;;5040250;28;20020;-78
2022/03/11 01:55:56;;;;;;;15.93;9.35;;;19.50;35.70;;;;;;5074981;28;20013;-79
2022/03/11 01:58:22;;;;;;;11.52;8.68;;;19.50;35.70;;;;;;5073499;28;20482;-78
2022/03/11 02:00:48;;;;;;;12.88;8.57;;;19.50;35.70;;;;;;5073472;28;20043;-78
2022/03/11 02:03:14;;;;;;;14.57;8.88;;;19.50;35.70;;;;;;5057161;28;20044;-78
2022/03/11 02:05:43;;;;;;;11.05;8.25;;;19.40;35.60;;;;;;5073474;28;20024;-79
2022/03/11 02:08:09;;;;;;;11.68;8.43;;;19.40;35.60;;;;;;5073616;28;20028;-78
2022/03/11 02:10:35;;;;;;;10.85;8.35;;;19.40;35.60;;;;;;5056623;28;20019;-78
2022/03/11 02:13:04;;;;;;;11.68;7.95;;;19.40;35.60;;;;;;5056547;28;20025;-77
2022/03/11 02:15:30;;;;;;;14.95;8.48;;;19.40;35.60;;;;;;5039986;28;20025;-78
2022/03/11 02:17:57;;;;;;;13.07;8.93;;;19.40;35.60;;;;;;5074581;28;20028;-78
2022/03/11 02:20:23;;;;;;;10.55;8.02;;;19.40;35.50;;;;;;5074023;28;20402;-79
2022/03/11 02:22:50;;;;;;;9.93;8.05;;;19.40;35.60;;;;;;5056330;28;20024;-78
2022/03/11 02:25:17;;;;;;;11.55;8.35;;;19.40;35.50;;;;;;5056731;28;20024;-78
2022/03/11 02:27:42;;;;;;;12.38;7.90;;;19.40;35.60;;;;;;5072880;28;20032;-79
2022/03/11 02:30:19;;;;;;;11.27;7.55;;;19.40;35.60;;;;;;5073169;28;20017;-77
2022/03/11 02:32:45;;;;;;;10.75;7.80;;;19.40;35.60;;;;;;5039797;28;20016;-78
2022/03/11 02:35:11;;;;;;;9.73;7.68;;;19.40;35.60;;;;;;5056425;28;20070;-78
2022/03/11 02:37:37;;;;;;;10.98;7.78;;;19.40;35.60;;;;;;5073283;28;20028;-77
2022/03/11 02:40:05;;;;;;;9.35;7.68;;;19.40;35.60;;;;;;5073342;28;20024;-78
2022/03/11 02:42:32;;;;;;;10.18;7.82;;;19.40;35.60;;;;;;5072996;28;20021;-77
2022/03/11 02:45:01;;;;;;;9.13;7.53;;;19.40;35.60;;;;;;5073138;28;20032;-78
2022/03/11 02:47:27;;;;;;;8.85;7.20;;;19.40;35.60;;;;;;5073189;28;20107;-78
2022/03/11 02:49:54;;;;;;;10.68;7.57;;;19.30;35.50;;;;;;5072874;28;20159;-79
2022/03/11 02:52:19;;;;;;;8.98;7.10;;;19.30;35.60;;;;;;5055728;28;20112;-78
2022/03/11 02:54:46;;;;;;;12.80;7.78;;;19.40;35.60;;;;;;5055823;28;20063;-78
2022/03/11 02:57:12;;;;;;;10.40;7.65;;;19.30;35.50;;;;;;5073266;28;20360;-78
2022/03/11 02:59:38;;;;;;;9.45;7.20;;;19.30;35.50;;;;;;5074036;28;20139;-77
2022/03/11 03:02:04;;;;;;;8.70;6.57;;;19.30;35.50;;;;;;5072778;28;20539;-76
2022/03/11 03:04:32;;;;;;;9.30;7.15;;;19.30;35.50;;;;;;5073698;28;20020;-79
2022/03/11 03:06:58;;;;;;;9.68;7.35;;;19.30;35.50;;;;;;5073540;28;20512;-77
2022/03/11 03:09:24;;;;;;;9.23;6.90;;;19.30;35.50;;;;;;5072572;28;20098;-77
2022/03/11 03:11:50;;;;;;;9.98;7.65;;;19.30;35.50;;;;;;5073910;28;20021;-78
2022/03/11 03:14:17;;;;;;;9.52;7.07;;;19.30;35.50;;;;;;5073887;28;20009;-79
2022/03/11 03:16:45;;;;;;;9.85;7.25;;;19.30;35.50;;;;;;5073842;28;20064;-79
2022/03/11 03:19:11;;;;;;;8.85;6.82;;;19.30;35.50;;;;;;5073149;28;20513;-77
2022/03/11 03:21:38;;;;;;;8.68;6.68;;;19.30;35.50;;;;;;5072393;28;20028;-78
2022/03/11 03:24:05;;;;;;;8.48;6.47;;;19.30;35.40;;;;;;5073052;28;20095;-78
2022/03/11 03:26:31;;;;;;;10.73;6.93;;;19.20;35.40;;;;;;5055199;28;20029;-78
2022/03/11 03:28:57;;;;;;;8.35;6.70;;;19.20;35.40;;;;;;5071828;28;20031;-79
2022/03/11 03:31:23;;;;;;;9.13;6.30;;;19.20;35.40;;;;;;5055128;28;20017;-77
2022/03/11 03:33:49;;;;;;;10.30;6.53;;;19.20;35.40;;;;;;5072093;28;20104;-77
2022/03/11 03:36:15;;;;;;;9.95;6.90;;;19.20;35.40;;;;;;5071804;28;20092;-77
2022/03/11 03:38:42;;;;;;;11.40;6.60;;;19.30;35.50;;;;;;5072069;28;20021;-78
2022/03/11 03:41:08;;;;;;;13.02;6.85;;;19.20;35.40;;;;;;5071825;28;20115;-78
2022/03/11 03:43:33;;;;;;;11.20;6.25;;;19.20;35.40;;;;;;5055120;28;20489;-78
2022/03/11 03:45:59;;;;;;;8.48;6.28;;;19.20;35.50;;;;;;5038243;28;20017;-77
2022/03/11 03:48:25;;;;;;;7.82;5.80;;;19.20;35.50;;;;;;5054715;28;20131;-80
2022/03/11 03:50:52;;;;;;;11.77;6.22;;;19.20;35.50;;;;;;5071879;28;20019;-78
2022/03/11 03:53:18;;;;;;;7.80;5.57;;;19.20;35.50;;;;;;5072984;28;20367;-79
2022/03/11 03:55:46;;;;;;;6.57;5.63;;;19.20;35.50;;;;;;5072687;28;20017;-78
2022/03/11 03:58:13;;;;;;;10.15;6.10;;;19.20;35.50;;;;;;5055588;28;20024;-86
2022/03/11 04:00:40;;;;;;;11.00;6.50;;;19.20;35.50;;;;;;5072553;28;20424;-86
2022/03/11 04:03:06;;;;;;;8.02;5.93;;;19.20;35.50;;;;;;5072680;28;20085;-86
2022/03/11 04:05:32;;;;;;;8.82;6.38;;;19.20;35.50;;;;;;5071797;28;20017;-84
2022/03/11 04:07:58;;;;;;;7.68;6.25;;;19.20;35.40;;;;;;5055038;28;20024;-85
2022/03/11 04:10:24;;;;;;;6.68;5.40;;;19.20;35.40;;;;;;5074777;28;20036;-87
2022/03/11 04:12:50;;;;;;;9.48;6.18;;;19.10;35.40;;;;;;5042276;28;20070;-85
2022/03/11 04:15:18;;;;;;;9.02;6.40;;;19.10;35.40;;;;;;5076155;28;20078;-85
2022/03/11 04:17:44;;;;;;;7.97;5.65;;;19.10;35.50;;;;;;5060558;28;20027;-85
2022/03/11 04:20:10;;;;;;;7.70;5.82;;;19.10;35.40;;;;;;5083123;28;20056;-82
2022/03/11 04:22:41;;;;;;;8.57;5.53;;;19.10;35.50;;;;;;5084519;28;20466;-83
2022/03/11 04:25:09;;;;;;;8.95;5.50;;;19.10;35.40;;;;;;5067876;28;20538;-83
2022/03/11 04:27:34;;;;;;;7.47;5.47;;;19.10;35.50;;;;;;5065808;28;20012;-82
2022/03/11 04:30:02;;;;;;;7.35;5.68;;;19.10;35.50;;;;;;5066147;28;20427;-83
2022/03/11 04:32:28;;;;;;;6.90;5.47;;;19.10;35.40;;;;;;5083714;28;20066;-82
2022/03/11 04:34:53;;;;;;;9.02;5.88;;;19.10;35.40;;;;;;5065761;28;20439;-82
2022/03/11 04:37:19;;;;;;;9.15;5.80;;;19.10;35.40;;;;;;5065124;28;20013;-82
2022/03/11 04:39:45;;;;;;;7.57;5.72;;;19.10;35.50;;;;;;5065489;28;20524;-82
2022/03/11 04:42:11;;;;;;;7.05;5.57;;;19.00;35.30;;;;;;5082957;28;20017;-82
2022/03/11 04:44:36;;;;;;;6.57;5.13;;;19.00;35.40;;;;;;5065626;28;20392;-82
2022/03/11 04:47:04;;;;;;;6.65;5.47;;;19.10;35.30;;;;;;5064166;28;20033;-82
2022/03/11 04:49:30;;;;;;;8.10;5.03;;;19.10;35.30;;;;;;5064104;28;20459;-82
2022/03/11 04:51:56;;;;;;;6.78;4.80;;;19.10;35.20;;;;;;5065291;28;20027;-83
2022/03/11 04:54:21;;;;;;;6.72;4.90;;;19.20;35.00;;;;;;5082076;28;20029;-85
2022/03/11 04:56:47;;;;;;;6.35;4.78;;;19.30;34.80;;;;;;5061982;28;20009;-82
2022/03/11 04:59:13;;;;;;;8.05;5.10;;;19.40;34.60;;;;;;5077536;28;20099;-79
2022/03/11 05:01:39;;;;;;;5.72;4.95;;;19.40;34.50;;;;;;5074890;28;20047;-81
2022/03/11 05:04:05;;;;;;;6.38;5.15;;;19.50;34.30;;;;;;5075796;28;20022;-81
2022/03/11 05:06:32;;;;;;;5.90;4.80;;;19.60;34.20;;;;;;5058059;28;20112;-82
2022/03/11 05:08:58;;;;;;;6.80;5.20;;;19.70;34.00;;;;;;5075910;28;20371;-79
2022/03/11 05:11:24;;;;;;;6.05;4.80;;;19.80;34.00;;;;;;5074744;28;20378;-82
2022/03/11 05:13:51;;;;;;;6.63;4.88;;;19.90;33.90;;;;;;5075003;28;20021;-80
2022/03/11 05:16:17;;;;;;;5.82;5.13;;;19.90;33.70;;;;;;5075617;28;20493;-79
2022/03/11 05:18:44;;;;;;;7.10;4.63;;;20.00;33.40;;;;;;5080126;28;20045;-85
2022/03/11 05:21:10;;;;;;;10.73;5.10;;;20.20;33.40;;;;;;5083045;28;20005;-82
2022/03/11 05:23:36;;;;;;;5.80;4.35;;;20.20;33.20;;;;;;5065077;28;20031;-83
2022/03/11 05:26:03;;;;;;;6.05;4.57;;;20.30;33.00;;;;;;5076802;28;20063;-85
2022/03/11 05:28:29;;;;;;;5.00;4.00;;;20.40;32.90;;;;;;5074362;28;20079;-83
2022/03/11 05:30:55;;;;;;;5.07;4.57;;;20.50;32.70;;;;;;5074095;28;20083;-85
2022/03/11 05:33:22;;;;;;;5.57;4.55;;;20.60;32.60;;;;;;5057244;28;20108;-83
2022/03/11 05:35:50;;;;;;;5.55;4.25;;;20.70;32.50;;;;;;5075241;28;20440;-84
2022/03/11 05:38:16;;;;;;;6.10;4.70;;;20.80;32.40;;;;;;5075105;28;20040;-78
2022/03/11 05:40:42;;;;;;;8.07;4.38;;;20.90;32.20;;;;;;5057265;28;20111;-79
2022/03/11 05:43:10;;;;;;;6.93;4.40;;;21.00;32.10;;;;;;5057624;28;20027;-79
2022/03/11 05:45:37;;;;;;;5.53;4.43;;;21.10;32.00;;;;;;5056968;28;20016;-78
2022/03/11 05:48:03;;;;;;;5.30;4.18;;;21.20;31.80;;;;;;5056929;28;20029;-78
2022/03/11 05:50:28;;;;;;;4.32;3.90;;;21.20;31.70;;;;;;5040394;28;20540;-79
2022/03/11 05:52:54;;;;;;;6.55;4.20;;;21.30;31.70;;;;;;5073815;28;20046;-81
2022/03/11 05:55:20;;;;;;;4.72;4.22;;;21.40;31.50;;;;;;5056970;28;20017;-79
2022/03/11 05:57:49;;;;;;;4.75;3.80;;;21.40;31.40;;;;;;5057261;28;20028;-80
2022/03/11 06:00:16;;;;;;;6.45;4.22;;;21.50;31.40;;;;;;5056679;28;20115;-80
2022/03/11 06:02:41;;;;;;;4.55;3.85;;;21.60;31.30;;;;;;5074958;28;20021;-80
2022/03/11 06:05:11;;;;;;;5.75;3.97;;;21.60;31.20;;;;;;5073657;28;20008;-78
2022/03/11 06:07:37;;;;;;;6.10;4.25;;;21.70;31.10;;;;;;5057050;28;20021;-78
2022/03/11 06:10:04;;;;;;;5.32;4.30;;;21.80;31.00;;;;;;5073522;28;20162;-81
2022/03/11 06:12:30;;;;;;;5.82;4.03;;;21.80;30.80;;;;;;5056563;28;20503;-78
2022/03/11 06:14:57;;;;;;;5.57;3.92;;;21.90;30.90;;;;;;5074291;28;20497;-78
2022/03/11 06:17:22;;;;;;;5.25;3.60;;;21.90;30.70;;;;;;5056469;28;20013;-77
2022/03/11 06:19:49;;;;;;;6.47;3.90;;;22.00;30.70;;;;;;5056159;28;20051;-76
2022/03/11 06:22:14;;;;;;;5.43;4.13;;;22.00;30.70;;;;;;5056376;28;20011;-78
2022/03/11 06:24:42;;;;;;;5.35;3.80;;;22.00;30.70;;;;;;5073285;28;20374;-79
2022/03/11 06:27:07;;;;;;;5.15;4.18;;;22.00;30.60;;;;;;5056281;28;20115;-78
2022/03/11 06:29:34;;;;;;;4.57;3.60;;;22.10;30.50;;;;;;5056177;28;20437;-78
2022/03/11 06:31:59;;;;;;;4.18;3.67;;;22.20;30.40;;;;;;5073575;28;20096;-78
2022/03/11 06:34:25;;;;;;;5.65;3.55;;;22.30;30.40;;;;;;5056029;28;20529;-78
2022/03/11 06:36:51;;;;;;;4.80;3.65;;;22.30;30.40;;;;;;5056182;28;20398;-79
2022/03/11 06:39:16;;;;;;;6.50;4.00;;;22.30;30.30;;;;;;5056215;28;20398;-76
2022/03/11 06:41:42;;;;;;;5.57;3.78;;;22.30;30.30;;;;;;5074030;28;20026;-78
2022/03/11 06:44:08;;;;;;;4.68;3.40;;;22.40;30.30;;;;;;5039573;28;20032;-78
2022/03/11 06:46:34;;;;;;;4.97;3.55;;;22.40;30.30;;;;;;5055965;28;20071;-79
2022/03/11 06:49:00;;;;;;;4.43;3.60;;;22.40;30.20;;;;;;5055541;28;20505;-79
2022/03/11 06:51:25;;;;;;;4.13;3.30;;;22.50;30.30;;;;;;5073471;28;20066;-79
2022/03/11 06:53:52;;;;;;;4.25;3.42;;;22.50;30.10;;;;;;5071935;28;20017;-77
2022/03/11 06:56:17;;;;;;;4.88;3.47;;;22.50;30.10;;;;;;5055034;28;20056;-77
2022/03/11 06:58:43;;;;;;;4.35;3.38;;;22.50;30.10;;;;;;5071066;28;20031;-77
2022/03/11 07:01:09;;;;;;;4.70;3.60;;;22.50;30.10;;;;;;5054365;28;20047;-77
2022/03/11 07:03:35;;;;;;;4.95;3.30;;;22.60;30.20;;;;;;5072167;28;20126;-77
2022/03/11 07:06:01;;;;;;;3.42;3.10;;;22.60;30.10;;;;;;5070953;28;20016;-80
2022/03/11 07:08:28;;;;;;;4.25;3.10;;;22.70;30.10;;;;;;5053920;28;20090;-78
2022/03/11 07:10:58;;;;;;;4.72;3.45;;;22.70;30.10;;;;;;5037429;28;20021;-78
2022/03/11 07:13:24;;;;;;;3.67;3.03;;;22.80;30.00;;;;;;5054124;28;20051;-79
2022/03/11 07:15:50;;;;;;;4.38;3.28;;;22.80;30.00;;;;;;5071055;28;20044;-80
2022/03/11 07:18:19;;;;;;;4.30;3.05;;;22.80;30.10;;;;;;5053903;28;20020;-76
2022/03/11 07:21:01;;;;;;;3.63;3.00;;;22.80;30.00;;;;;;5072503;28;20067;-80
2022/03/11 07:23:44;;;;;;;40.67;9.48;;;22.80;30.00;;;;;;5067972;28;20103;-79
2022/03/11 07:26:09;;;;;;;24.80;8.02;;;22.80;30.90;;;;;;5039081;28;20070;-78
2022/03/11 07:28:35;;;;;;;19.77;7.28;;;22.80;31.40;;;;;;5054757;28;20035;-78
2022/03/11 07:31:01;;;;;;;18.13;6.82;;;22.80;31.60;;;;;;5054479;28;20020;-77
2022/03/11 07:33:30;;;;;;;16.90;6.80;;;22.90;31.10;;;;;;5072298;28;20416;-79
2022/03/11 07:35:55;;;;;;;20.73;7.22;;;23.00;30.80;;;;;;5055499;28;20021;-79
2022/03/11 07:38:23;;;;;;;23.85;6.60;;;23.10;30.40;;;;;;5056928;28;20464;-86
2022/03/11 07:40:49;;;;;;;12.68;6.32;;;23.10;30.00;;;;;;5043756;28;20113;-87
2022/03/11 07:43:15;;;;;;;10.40;6.22;;;23.20;29.90;;;;;;5064364;28;20028;-85
2022/03/11 07:45:41;;;;;;;9.48;5.53;;;23.20;29.70;;;;;;5062526;28;20024;-86
2022/03/11 07:48:06;;;;;;;11.85;6.22;;;23.20;29.80;;;;;;5044578;28;20401;-84
2022/03/11 07:50:35;;;;;;;19.23;6.95;;;23.30;29.70;;;;;;5060718;28;20066;-86
2022/03/11 07:53:01;;;;;;;13.65;6.55;;;23.30;29.80;;;;;;5063320;28;20012;-87
2022/03/11 07:55:30;;;;;;;10.13;6.22;;;23.30;29.70;;;;;;5061838;28;20494;-86
2022/03/11 07:57:56;;;;;;;10.23;6.20;;;23.40;29.10;;;;;;5079601;28;20028;-90
2022/03/11 08:00:22;;;;;;;14.82;7.22;;;23.40;29.20;;;;;;5065488;28;20035;-86
2022/03/11 08:02:48;;;;;;;10.88;6.75;;;23.50;28.90;;;;;;5079440;28;20151;-86
2022/03/11 08:05:16;;;;;;;12.20;6.60;;;23.50;29.30;;;;;;5064827;28;20043;-85
2022/03/11 08:07:49;;;;;;;11.82;6.80;;;23.50;29.10;;;;;;5066946;28;20012;-86
2022/03/11 08:10:20;;;;;;;14.13;6.82;;;23.50;29.00;;;;;;5063440;28;20012;-85
2022/03/11 08:12:50;;;;;;;;;;;23.50;28.80;;;;;;5062680;28;20024;-82
2022/03/11 08:15:17;;;;;;;17.65;7.00;;;23.50;28.90;;;;;;5080474;28;19931;-86
2022/03/11 08:17:43;;;;;;;18.75;7.40;;;23.50;28.90;;;;;;5064029;22;20052;-52
2022/03/11 08:20:10;;;;;;;13.60;6.15;;;23.40;28.80;;;;;;5091396;28;20016;-53
2022/03/11 08:22:39;;;;;;;21.15;6.40;;;23.30;28.80;;;;;;5073278;28;20110;-50
2022/03/11 08:25:05;;;;;;;16.63;6.82;;;23.20;28.50;;;;;;5091183;28;20153;-47
2022/03/11 08:27:31;;;;;;;27.73;6.63;;;23.20;29.40;;;;;;5073467;28;20034;-49
2022/03/11 08:29:57;;;;;;;16.00;5.80;;;23.20;28.40;;;;;;5073057;28;20020;-50
2022/03/11 08:32:22;;;;;;;14.93;6.45;;;23.10;28.20;;;;;;5091372;28;20008;-53
2022/03/11 08:34:48;;;;;;;13.02;5.82;;;23.20;28.60;;;;;;5072953;28;20027;-49
2022/03/11 08:37:14;;;;;;;10.52;5.40;;;23.10;28.20;;;;;;5091091;28;20373;-53
2022/03/11 08:39:41;;;;;;;12.65;5.00;;;23.10;28.00;;;;;;5090946;28;20069;-51
2022/03/11 08:42:07;;;;;;;7.65;5.63;;;23.10;28.30;;;;;;5072965;28;20035;-52
2022/03/11 08:44:32;;;;;;;8.25;5.50;;;23.10;28.00;;;;;;5072567;28;20017;-53
2022/03/11 08:46:58;;;;;;;11.52;6.00;;;23.10;28.10;;;;;;5090926;28;20020;-51
2022/03/11 08:49:25;;;;;;;13.38;5.65;;;23.10;27.80;;;;;;5072695;28;20020;-50
2022/03/11 08:51:51;;;;;;;8.63;5.90;;;23.20;28.20;;;;;;5073224;28;20039;-49
2022/03/11 08:54:20;;;;;;;7.15;5.20;;;23.10;28.10;;;;;;5072709;28;20012;-51
2022/03/11 08:56:46;;;;;;;9.27;5.28;;;23.10;28.30;;;;;;5075022;28;20030;-51
2022/03/11 08:59:12;;;;;;;11.63;4.85;;;23.20;28.00;;;;;;5076484;28;20099;-52
2022/03/11 09:01:38;;;;;;;11.52;5.93;;;23.20;28.10;;;;;;5094614;28;20047;-53
2022/03/11 09:04:04;;;;;;;8.80;5.43;;;23.20;28.40;;;;;;5076494;28;20043;-53
2022/03/11 09:06:30;;;;;;;22.85;5.68;;;23.20;28.40;;;;;;5060423;28;20024;-55
2022/03/11 09:08:56;;;;;;;14.10;5.07;;;23.10;28.50;;;;;;5095196;28;20028;-54
2022/03/11 09:11:22;;;;;;;9.43;5.00;;;23.10;28.60;;;;;;5077134;28;20494;-54
2022/03/11 09:13:49;;;;;;;14.07;4.22;;;23.20;28.60;;;;;;5095049;28;20053;-52
2022/03/11 09:16:16;;;;;;;13.73;4.63;;;23.20;28.60;;;;;;5093504;28;20036;-54
2022/03/11 09:18:42;;;;;;;36.35;6.03;;;23.20;28.70;;;;;;5072001;28;20135;-51
2022/03/11 09:21:08;;;;;;;30.77;5.38;;;23.20;28.80;;;;;;5056378;28;20300;-53
2022/03/11 09:23:34;;;;;;;28.67;5.15;;;23.40;29.00;;;;;;5074469;28;20023;-58
2022/03/11 09:26:00;;;;;;;11.40;4.82;;;23.60;29.20;;;;;;5074412;28;20535;-52
2022/03/11 09:28:25;;;;;;;15.43;4.45;;;23.70;29.50;;;;;;5072742;28;20105;-53
2022/03/11 09:30:51;;;;;;;16.63;4.70;;;23.80;29.60;;;;;;5074134;28;20112;-50
2022/03/11 09:33:17;;;;;;;12.10;4.95;;;23.60;29.60;;;;;;5074273;28;20008;-51
2022/03/11 09:35:43;;;;;;;17.08;5.38;;;23.50;29.90;;;;;;5074253;28;20016;-51
2022/03/11 09:38:09;;;;;;;14.25;5.97;;;23.30;29.50;;;;;;5072854;28;20020;-55
2022/03/11 09:40:36;;;;;;;12.10;5.45;;;23.10;29.90;;;;;;5073994;28;20016;-53
2022/03/11 09:43:01;;;;;;;13.88;5.15;;;22.90;29.70;;;;;;5074293;28;20024;-52
2022/03/11 09:45:27;;;;;;;10.73;5.05;;;22.90;30.00;;;;;;5074218;28;20021;-54
2022/03/11 09:47:54;;;;;;;11.73;5.35;;;22.70;30.50;;;;;;5056364;28;20063;-50
2022/03/11 09:50:20;;;;;;;9.70;5.25;;;22.60;30.10;;;;;;5072871;28;20101;-50
2022/03/11 09:52:47;;;;;;;7.15;5.50;;;22.60;30.20;;;;;;5074464;28;20370;-54
2022/03/11 09:55:16;;;;;;;12.95;5.45;;;22.60;30.10;;;;;;5073820;28;20008;-53
2022/03/11 09:57:41;;;;;;;8.70;5.30;;;22.60;30.30;;;;;;5074451;28;20095;-48
2022/03/11 10:00:10;;;;;;;6.57;4.70;;;22.50;30.10;;;;;;5074193;28;20171;-43
2022/03/11 10:02:36;;;;;;;9.07;5.40;;;22.60;30.90;;;;;;5073050;28;20016;-42
2022/03/11 10:05:02;;;;;;;6.60;4.53;;;22.50;30.50;;;;;;5074087;28;20012;-43
2022/03/11 10:07:29;;;;;;;10.75;4.35;;;22.60;30.20;;;;;;5071303;28;20016;-44
2022/03/11 10:09:56;;;;;;;14.05;5.25;;;22.50;30.60;;;;;;5071755;28;20072;-45
2022/03/11 10:12:27;;;;;;;18.13;6.05;;;22.60;31.10;;;;;;5072160;28;20039;-44
2022/03/11 10:15:06;;;;;;;12.50;4.78;;;22.70;31.70;;;;;;5072162;28;20024;-46
2022/03/11 10:17:44;;;;;;;17.95;4.97;;;23.00;32.00;;;;;;5072180;28;20110;-43
2022/03/11 10:20:16;;;;;;;23.88;4.68;;;23.20;32.40;;;;;;5072012;28;20016;-47
2022/03/11 10:22:45;;;;;;;11.80;4.03;;;23.50;32.30;;;;;;5073561;28;20024;-47
2022/03/11 10:25:17;;;;;;;13.80;4.05;;;23.70;32.50;;;;;;5073437;28;20022;-45
2022/03/11 10:28:02;;;;;;;17.23;4.43;;;23.80;32.80;;;;;;5073243;28;20023;-47
2022/03/11 10:30:34;;;;;;;9.73;4.47;;;24.00;33.10;;;;;;5072985;28;20049;-45
2022/03/11 10:33:01;;;;;;;;;;;24.20;33.10;;;;;;5073595;28;20043;-48
2022/03/11 10:35:31;;;;;;;14.43;3.88;;;24.20;33.30;;;;;;5071726;28;19908;-47
2022/03/11 10:38:03;;;;;;;18.25;3.70;;;24.30;33.30;;;;;;5072983;28;20421;-45
2022/03/11 10:40:30;;;;;;;11.68;3.80;;;24.40;34.00;;;;;;5071815;28;20027;-50
2022/03/11 10:43:14;;;;;;;10.10;3.80;;;24.50;33.90;;;;;;5071577;28;20023;-51
2022/03/11 10:46:06;;;;;;;13.18;3.85;;;24.50;34.60;;;;;;5073072;28;20067;-49
2022/03/11 10:48:45;;;;;;;13.55;3.88;;;24.50;34.10;;;;;;5063079;28;20504;-45
2022/03/11 10:51:26;;;;;;;14.27;3.80;;;24.50;34.20;;;;;;5072841;28;20016;-48
2022/03/11 10:53:55;;;;;;;32.25;5.00;;;24.60;34.40;;;;;;5072728;28;20008;-45
2022/03/11 10:56:40;;;;;;;26.65;4.93;;;24.60;34.60;;;;;;5072025;28;20025;-48
2022/03/11 10:59:22;;;;;;;25.17;4.90;;;24.60;34.70;;;;;;5072760;28;20339;-50
2022/03/11 11:01:50;;;;;;;31.00;5.45;;;24.50;35.20;;;;;;5073500;28;20056;-49
2022/03/11 11:04:17;;;;;;;24.65;4.25;;;24.40;35.00;;;;;;5071843;28;20063;-47
2022/03/11 11:06:42;;;;;;;29.33;4.03;;;24.30;35.00;;;;;;5073166;28;20051;-48
2022/03/11 11:09:09;;;;;;;20.38;4.47;;;24.20;35.00;;;;;;5072918;28;20017;-47
2022/03/11 11:11:36;;;;;;;22.15;5.15;;;24.20;34.90;;;;;;5072824;28;20450;-46
2022/03/11 11:14:06;;;;;;;23.77;5.10;;;24.20;34.90;;;;;;5073059;28;20035;-46
2022/03/11 11:16:53;;;;;;;20.10;4.15;;;24.20;34.80;;;;;;5073011;28;20060;-51
2022/03/11 11:19:19;;;;;;;16.30;3.85;;;24.10;34.80;;;;;;5072598;28;20138;-51
2022/03/11 11:21:47;;;;;;;16.88;4.18;;;24.20;34.50;;;;;;5071401;28;20063;-50
2022/03/11 11:24:20;;;;;;;16.25;3.80;;;24.10;34.50;;;;;;5073242;28;20036;-48
2022/03/11 11:26:52;;;;;;;25.10;4.57;;;24.20;34.40;;;;;;5073075;28;20021;-52
2022/03/11 11:29:36;;;;;;;19.13;3.80;;;24.10;34.40;;;;;;5072813;28;20032;-51
2022/03/11 11:32:06;;;;;;;13.10;3.70;;;24.20;34.30;;;;;;5072420;28;20474;-51
2022/03/11 11:34:37;;;;;;;20.10;3.67;;;24.20;34.80;;;;;;5071007;28;20493;-48
2022/03/11 11:37:03;;;;;;;26.13;4.03;;;24.20;34.20;;;;;;5072973;28;20036;-52
2022/03/11 11:39:38;;;;;;;16.08;3.45;;;24.20;34.10;;;;;;5071208;28;20013;-46
2022/03/11 11:42:10;;;;;;;15.38;3.78;;;24.20;34.10;;;;;;5070965;28;20025;-43
2022/03/11 11:44:42;;;;;;;11.70;3.72;;;24.10;33.40;;;;;;5072359;28;20032;-43
2022/03/11 11:47:21;;;;;;;17.73;3.92;;;23.90;32.20;;;;;;5071723;28;20016;-43
2022/03/11 11:49:52;;;;;;;13.40;4.03;;;23.60;32.00;;;;;;5070804;28;20024;-40
2022/03/11 11:52:36;;;;;;;23.42;4.22;;;23.50;32.80;;;;;;5071944;28;20043;-43
2022/03/11 11:55:13;;;;;;;22.63;4.13;;;23.60;34.50;;;;;;5071297;28;20024;-43
2022/03/11 11:57:42;;;;;;;19.15;3.83;;;23.70;33.70;;;;;;5071986;28;20037;-45
2022/03/11 12:00:27;;;;;;;11.48;3.65;;;23.70;33.90;;;;;;5071584;28;20516;-47
2022/03/11 12:02:53;;;;;;;18.35;3.28;;;23.70;33.50;;;;;;5070162;28;20025;-43
2022/03/11 12:05:41;;;;;;;15.18;3.28;;;23.70;33.50;;;;;;5070658;28;20024;-46
2022/03/11 12:08:07;;;;;;;11.65;3.28;;;23.70;33.70;;;;;;5070903;28;20036;-46
2022/03/11 12:10:33;;;;;;;17.42;3.40;;;23.70;35.00;;;;;;5052910;28;20021;-48
2022/03/11 12:13:00;;;;;;;12.50;3.47;;;23.70;33.80;;;;;;5052814;28;20062;-45
2022/03/11 12:15:27;;;;;;;8.70;3.00;;;23.70;33.50;;;;;;5070548;28;20029;-43
2022/03/11 12:17:59;;;;;;;12.00;3.10;;;23.70;33.70;;;;;;5052646;28;20131;-42
2022/03/11 12:20:37;;;;;;;9.65;3.05;;;23.60;34.20;;;;;;5069026;28;20474;-42
2022/03/11 12:23:06;;;;;;;7.78;2.70;;;23.70;34.00;;;;;;5070737;28;20040;-43
2022/03/11 12:25:35;;;;;;;8.23;2.70;;;23.70;33.70;;;;;;5072679;28;20095;-46
2022/03/11 12:28:07;;;;;;;11.68;2.50;;;23.70;33.50;;;;;;5071350;28;20536;-42
2022/03/11 12:30:41;;;;;;;10.15;2.78;;;23.80;34.50;;;;;;5072536;28;20015;-43
2022/03/11 12:33:46;;;;;;;10.95;2.72;;;23.80;33.70;;;;;;5075129;28;20066;-42
2022/03/11 12:36:39;;;;;;;18.33;4.07;;;23.80;33.50;;;;;;5070871;28;20017;-45
2022/03/11 12:39:08;;;;;;;46.08;4.93;;;23.80;34.20;;;;;;5072759;28;20043;-42
2022/03/11 12:41:35;;;;;;;34.13;4.97;;;23.80;34.30;;;;;;5073348;28;20025;-45
2022/03/11 12:44:02;;;;;;;31.88;4.40;;;23.80;34.40;;;;;;5072983;28;20131;-42